createdAt,value
2022-11-09T00:02:01.953Z,35.97
2022-11-09T00:04:31.829Z,35.92
2022-11-09T00:07:09.011Z,35.85
2022-11-09T00:09:38.179Z,38.43
2022-11-09T00:12:07.757Z,36.03
2022-11-09T00:14:36.916Z,33.30
2022-11-09T00:17:05.472Z,36.83
2022-11-09T00:19:35.939Z,39.30
2022-11-09T00:22:04.414Z,38.00
2022-11-09T00:24:32.977Z,35.50
2022-11-09T00:27:01.489Z,38.75
2022-11-09T00:29:30.684Z,36.78
2022-11-09T00:32:01.653Z,33.85
2022-11-09T00:34:30.179Z,34.55
2022-11-09T00:37:03.399Z,32.47
2022-11-09T00:39:31.893Z,39.53
2022-11-09T00:42:00.386Z,33.20
2022-11-09T00:44:31.748Z,31.83
2022-11-09T00:47:00.342Z,35.55
2022-11-09T00:49:28.781Z,33.95
2022-11-09T00:51:57.384Z,30.65
2022-11-09T00:54:27.300Z,32.65
2022-11-09T00:56:55.977Z,32.10
2022-11-09T01:01:53.031Z,27.85
2022-11-09T01:04:21.923Z,32.63
2022-11-09T01:06:50.513Z,33.15
2022-11-09T01:09:18.894Z,30.65
2022-11-09T01:11:48.826Z,29.27
2022-11-09T01:14:17.420Z,34.28
2022-11-09T01:16:45.941Z,28.90
2022-11-09T01:19:14.456Z,31.80
2022-11-09T01:21:42.967Z,31.30
2022-11-09T01:24:11.918Z,34.45
2022-11-09T01:29:09.902Z,29.40
2022-11-09T01:31:38.363Z,31.77
2022-11-09T01:34:06.850Z,33.13
2022-11-09T01:36:35.276Z,30.58
2022-11-09T01:39:03.805Z,31.10
2022-11-09T01:41:32.243Z,31.10
2022-11-09T01:44:11.496Z,35.92
2022-11-09T01:46:49.419Z,32.35
2022-11-09T01:49:29.996Z,30.27
2022-11-09T01:52:02.037Z,33.65
2022-11-09T01:54:38.379Z,33.65
2022-11-09T01:57:11.723Z,28.23
2022-11-09T01:59:47.184Z,30.52
2022-11-09T02:02:16.690Z,30.80
2022-11-09T02:04:51.499Z,34.17
2022-11-09T02:07:22.027Z,36.40
2022-11-09T02:09:56.312Z,35.05
2022-11-09T02:12:29.527Z,34.78
2022-11-09T02:15:02.280Z,30.13
2022-11-09T02:17:33.121Z,33.13
2022-11-09T02:20:02.548Z,37.20
2022-11-09T02:22:34.700Z,36.97
2022-11-09T02:25:04.235Z,34.75
2022-11-09T02:27:33.372Z,34.85
2022-11-09T02:30:03.937Z,29.02
2022-11-09T02:32:33.434Z,36.80
2022-11-09T02:35:03.951Z,35.50
2022-11-09T02:37:37.142Z,34.20
2022-11-09T02:40:12.329Z,37.65
2022-11-09T02:42:41.332Z,34.85
2022-11-09T02:45:11.362Z,37.13
2022-11-09T02:47:41.944Z,37.35
2022-11-09T02:50:11.546Z,39.03
2022-11-09T02:52:41.480Z,36.10
2022-11-09T02:55:10.937Z,28.95
2022-11-09T02:57:40.786Z,37.95
2022-11-09T03:00:11.392Z,39.10
2022-11-09T03:02:40.257Z,36.85
2022-11-09T03:05:09.719Z,35.63
2022-11-09T03:07:43.304Z,39.65
2022-11-09T03:10:13.146Z,39.30
2022-11-09T03:12:42.891Z,42.13
2022-11-09T03:15:15.138Z,40.47
2022-11-09T03:17:47.710Z,37.90
2022-11-09T03:20:17.419Z,41.40
2022-11-09T03:22:47.336Z,41.83
2022-11-09T03:25:16.266Z,40.55
2022-11-09T03:27:44.822Z,35.58
2022-11-09T03:30:14.879Z,41.00
2022-11-09T03:32:48.011Z,36.15
2022-11-09T03:35:19.064Z,37.30
2022-11-09T03:37:49.132Z,39.08
2022-11-09T03:40:18.727Z,40.85
2022-11-09T03:42:50.268Z,38.42
2022-11-09T03:45:18.932Z,35.60
2022-11-09T03:47:48.516Z,37.00
2022-11-09T03:50:18.576Z,33.55
2022-11-09T03:52:49.383Z,37.25
2022-11-09T03:55:17.944Z,31.55
2022-11-09T03:57:47.251Z,32.08
2022-11-09T04:00:18.637Z,34.58
2022-11-09T04:02:47.482Z,33.38
2022-11-09T04:05:16.656Z,36.10
2022-11-09T04:07:50.852Z,30.85
2022-11-09T04:10:20.131Z,30.80
2022-11-09T04:12:48.823Z,32.85
2022-11-09T04:15:17.775Z,29.45
2022-11-09T04:17:46.555Z,33.72
2022-11-09T04:20:15.161Z,29.77
2022-11-09T04:22:43.617Z,31.17
2022-11-09T04:25:13.510Z,31.17
2022-11-09T04:27:42.028Z,31.25
2022-11-09T04:30:14.056Z,29.13
2022-11-09T04:32:42.579Z,26.80
2022-11-09T04:35:11.257Z,25.02
2022-11-09T04:37:39.708Z,28.15
2022-11-09T04:40:09.222Z,28.17
2022-11-09T04:42:39.125Z,28.95
2022-11-09T04:45:08.552Z,27.75
2022-11-09T04:47:37.024Z,32.45
2022-11-09T04:50:06.005Z,29.83
2022-11-09T04:52:34.461Z,25.52
2022-11-09T04:55:03.153Z,26.35
2022-11-09T04:57:32.262Z,30.02
2022-11-09T05:00:02.066Z,24.10
2022-11-09T05:02:33.724Z,28.20
2022-11-09T05:05:02.218Z,27.95
2022-11-09T05:07:32.520Z,24.83
2022-11-09T05:10:01.076Z,27.77
2022-11-09T05:12:29.747Z,25.25
2022-11-09T05:14:58.243Z,26.38
2022-11-09T05:17:28.175Z,26.38
2022-11-09T05:19:56.623Z,24.42
2022-11-09T05:22:42.477Z,29.83
2022-11-09T05:25:11.606Z,26.15
2022-11-09T05:27:42.395Z,24.90
2022-11-09T05:30:11.786Z,29.73
2022-11-09T05:32:41.858Z,27.08
2022-11-09T05:35:10.867Z,24.90
2022-11-09T05:37:40.004Z,27.73
2022-11-09T05:40:10.723Z,28.63
2022-11-09T05:42:40.926Z,32.22
2022-11-09T05:45:40.379Z,25.75
2022-11-09T05:48:00.988Z,24.23
2022-11-09T05:50:29.511Z,30.10
2022-11-09T05:53:12.150Z,26.70
2022-11-09T05:55:41.322Z,27.85
2022-11-09T05:58:09.891Z,25.30
2022-11-09T06:00:38.834Z,26.60
2022-11-09T06:03:12.017Z,26.70
2022-11-09T06:05:42.454Z,25.60
2022-11-09T06:08:13.208Z,25.77
2022-11-09T06:10:42.314Z,25.10
2022-11-09T06:15:39.354Z,24.63
2022-11-09T06:18:09.275Z,24.98
2022-11-09T06:20:37.764Z,24.58
2022-11-09T06:23:06.223Z,23.90
2022-11-09T06:25:36.095Z,24.77
2022-11-09T06:28:04.737Z,25.60
2022-11-09T06:30:33.124Z,21.98
2022-11-09T06:33:01.939Z,25.88
2022-11-09T06:38:01.605Z,24.13
2022-11-09T06:40:30.663Z,23.25
2022-11-09T06:42:59.894Z,24.73
2022-11-09T06:45:34.111Z,23.27
2022-11-09T06:48:04.396Z,22.50
2022-11-09T06:50:35.426Z,23.85
2022-11-09T06:53:08.996Z,24.55
2022-11-09T06:55:45.711Z,25.45
2022-11-09T06:58:18.263Z,25.15
2022-11-09T07:00:47.484Z,20.70
2022-11-09T07:03:17.540Z,25.98
2022-11-09T07:05:52.103Z,27.13
2022-11-09T07:08:23.079Z,26.88
2022-11-09T07:10:51.739Z,23.52
2022-11-09T07:13:20.767Z,25.67
2022-11-09T07:16:03.243Z,24.50
2022-11-09T07:18:32.422Z,20.77
2022-11-09T07:21:14.313Z,23.00
2022-11-09T07:23:49.358Z,23.15
2022-11-09T07:26:19.964Z,23.38
2022-11-09T07:28:51.046Z,18.55
2022-11-09T07:31:31.551Z,19.23
2022-11-09T07:34:10.925Z,21.13
2022-11-09T07:36:49.080Z,19.90
2022-11-09T07:39:17.730Z,24.15
2022-11-09T07:41:48.569Z,19.45
2022-11-09T07:44:18.525Z,21.13
2022-11-09T07:46:48.854Z,17.88
2022-11-09T07:49:18.055Z,20.25
2022-11-09T07:51:48.181Z,23.27
2022-11-09T07:54:16.776Z,19.83
2022-11-09T07:56:45.329Z,20.02
2022-11-09T07:59:14.496Z,22.20
2022-11-09T08:01:43.165Z,19.27
2022-11-09T08:04:11.783Z,18.17
2022-11-09T08:06:40.421Z,21.17
2022-11-09T08:09:10.537Z,23.83
2022-11-09T08:11:39.065Z,20.13
2022-11-09T08:14:07.495Z,18.08
2022-11-09T08:16:37.867Z,18.88
2022-11-09T08:19:09.112Z,19.35
2022-11-09T08:21:38.112Z,17.17
2022-11-09T08:29:09.990Z,17.08
2022-11-09T08:31:41.760Z,20.55
2022-11-09T08:34:14.119Z,20.67
2022-11-09T08:36:42.852Z,20.65
2022-11-09T08:39:11.436Z,19.15
2022-11-09T08:41:41.403Z,20.50
2022-11-09T08:44:09.992Z,18.65
2022-11-09T08:46:41.299Z,17.92
2022-11-09T08:49:10.330Z,17.80
2022-11-09T08:51:38.856Z,19.52
2022-11-09T08:54:11.602Z,16.25
2022-11-09T08:56:41.537Z,16.58
2022-11-09T08:59:10.044Z,21.02
2022-11-09T09:01:38.785Z,17.08
2022-11-09T09:04:07.528Z,19.63
2022-11-09T09:06:36.042Z,16.88
2022-11-09T09:09:04.784Z,22.10
2022-11-09T09:11:33.477Z,19.25
2022-11-09T09:14:03.436Z,19.80
2022-11-09T09:16:32.080Z,18.10
2022-11-09T09:19:00.668Z,20.35
2022-11-09T09:21:29.453Z,20.20
2022-11-09T09:23:58.375Z,19.83
2022-11-09T09:26:29.847Z,21.05
2022-11-09T09:28:58.856Z,19.98
2022-11-09T09:33:58.001Z,20.08
2022-11-09T09:36:26.666Z,22.58
2022-11-09T09:38:55.785Z,19.08
2022-11-09T09:41:41.831Z,18.60
2022-11-09T09:44:21.942Z,21.13
2022-11-09T09:46:57.824Z,22.15
2022-11-09T09:49:30.106Z,20.80
2022-11-09T09:52:05.152Z,18.42
2022-11-09T09:54:40.764Z,18.25
2022-11-09T09:57:18.578Z,20.23
2022-11-09T09:59:50.996Z,21.95
2022-11-09T10:02:26.412Z,15.77
2022-11-09T10:04:57.403Z,19.63
2022-11-09T10:07:31.179Z,17.15
2022-11-09T10:10:33.695Z,16.65
2022-11-09T10:13:40.655Z,16.25
2022-11-09T10:16:20.063Z,18.13
2022-11-09T10:19:12.549Z,17.33
2022-11-09T10:21:49.693Z,17.50
2022-11-09T10:24:28.651Z,16.05
2022-11-09T10:26:59.023Z,16.73
2022-11-09T10:29:30.128Z,14.65
2022-11-09T10:32:11.140Z,14.85
2022-11-09T10:34:50.524Z,19.13
2022-11-09T10:37:23.317Z,15.07
2022-11-09T10:39:57.852Z,18.15
2022-11-09T10:42:47.597Z,17.98
2022-11-09T10:45:37.546Z,15.35
2022-11-09T10:48:34.419Z,23.63
2022-11-09T10:51:39.727Z,18.92
2022-11-09T10:54:29.127Z,19.98
2022-11-09T10:57:21.351Z,19.75
2022-11-09T11:00:17.670Z,19.30
2022-11-09T11:03:23.105Z,18.48
2022-11-09T11:06:17.594Z,19.17
2022-11-09T11:09:22.222Z,19.10
2022-11-09T11:12:17.223Z,20.10
2022-11-09T11:15:16.021Z,18.85
2022-11-09T11:18:05.611Z,25.95
2022-11-09T11:21:17.444Z,16.00
2022-11-09T11:24:15.213Z,20.45
2022-11-09T11:27:10.467Z,22.05
2022-11-09T11:30:05.662Z,18.77
2022-11-09T11:32:52.701Z,21.42
2022-11-09T11:35:45.147Z,18.77
2022-11-09T11:38:38.539Z,21.80
2022-11-09T11:41:51.668Z,21.92
2022-11-09T11:45:12.432Z,21.17
2022-11-09T11:48:16.109Z,19.10
2022-11-09T11:51:11.161Z,21.30
2022-11-09T11:54:14.151Z,21.48
2022-11-09T11:57:09.398Z,22.70
2022-11-09T12:00:11.118Z,20.35
2022-11-09T12:03:36.247Z,23.23
2022-11-09T12:06:45.083Z,23.42
2022-11-09T12:10:05.126Z,19.40
2022-11-09T12:13:05.948Z,19.27
2022-11-09T12:16:04.572Z,19.15
2022-11-09T12:19:13.808Z,24.63
2022-11-09T12:22:08.347Z,20.67
2022-11-09T12:25:04.407Z,19.75
2022-11-09T12:28:28.069Z,22.85
2022-11-09T12:31:32.602Z,22.52
2022-11-09T12:34:53.823Z,23.65
2022-11-09T12:37:51.583Z,22.58
2022-11-09T12:40:46.154Z,24.55
2022-11-09T12:43:43.211Z,20.38
2022-11-09T12:46:39.058Z,20.20
2022-11-09T12:49:41.468Z,20.27
2022-11-09T12:52:31.308Z,19.73
2022-11-09T12:55:25.653Z,18.35
2022-11-09T12:58:26.473Z,18.25
2022-11-09T13:01:35.299Z,17.27
2022-11-09T13:04:25.590Z,18.67
2022-11-09T13:07:32.017Z,18.67
2022-11-09T13:10:32.969Z,21.50
2022-11-09T13:13:28.417Z,23.75
2022-11-09T13:16:45.325Z,21.05
2022-11-09T13:19:56.558Z,24.30
2022-11-09T13:23:01.438Z,21.42
2022-11-09T13:25:53.239Z,19.92
2022-11-09T13:28:44.796Z,24.08
2022-11-09T13:32:06.466Z,23.88
2022-11-09T13:34:56.911Z,19.10
2022-11-09T13:37:55.192Z,18.67
2022-11-09T13:40:45.116Z,16.33
2022-11-09T13:43:34.322Z,18.42
2022-11-09T13:46:27.828Z,17.63
2022-11-09T13:49:47.840Z,15.27
2022-11-09T13:52:55.230Z,16.08
2022-11-09T13:55:45.923Z,18.17
2022-11-09T13:58:47.089Z,16.20
2022-11-09T14:01:50.132Z,16.23
2022-11-09T14:04:39.660Z,13.82
2022-11-09T14:07:29.592Z,17.45
2022-11-09T14:10:35.958Z,15.50
2022-11-09T14:13:43.496Z,15.50
2022-11-09T14:16:41.792Z,19.25
2022-11-09T14:19:39.893Z,17.98
2022-11-09T14:22:29.971Z,18.85
2022-11-09T14:25:22.280Z,17.65
2022-11-09T14:28:37.649Z,22.02
2022-11-09T14:31:26.737Z,16.60
2022-11-09T14:34:17.212Z,19.60
2022-11-09T14:37:07.732Z,16.40
2022-11-09T14:39:54.954Z,20.58
2022-11-09T14:42:48.971Z,17.27
2022-11-09T14:45:36.519Z,15.77
2022-11-09T14:48:25.221Z,17.00
2022-11-09T14:51:14.847Z,17.98
2022-11-09T15:01:24.127Z,22.98
2022-11-09T15:04:13.978Z,15.63
2022-11-09T15:07:05.919Z,16.27
2022-11-09T15:09:56.680Z,18.42
2022-11-09T15:13:02.515Z,20.55
2022-11-09T15:15:56.980Z,21.00
2022-11-09T15:18:48.821Z,17.92
2022-11-09T15:21:42.264Z,20.73
2022-11-09T15:24:46.364Z,22.10
2022-11-09T15:27:39.284Z,19.10
2022-11-09T15:30:55.963Z,19.15
2022-11-09T15:33:55.465Z,23.13
2022-11-09T15:36:46.136Z,23.38
2022-11-09T15:39:36.283Z,26.30
2022-11-09T15:42:27.592Z,32.95
2022-11-09T15:45:17.372Z,23.30
2022-11-09T15:48:24.859Z,21.40
2022-11-09T15:51:17.421Z,24.67
2022-11-09T15:54:07.321Z,27.45
2022-11-09T15:56:54.916Z,29.02
2022-11-09T15:59:42.461Z,27.85
2022-11-09T16:02:32.768Z,31.02
2022-11-09T16:05:22.668Z,28.23
2022-11-09T16:08:13.216Z,29.70
2022-11-09T16:11:07.989Z,26.85
2022-11-09T16:14:05.465Z,23.27
2022-11-09T16:16:53.391Z,20.92
2022-11-09T16:19:43.330Z,25.20
2022-11-09T16:22:33.062Z,25.92
2022-11-09T16:25:22.995Z,23.35
2022-11-09T16:28:12.371Z,23.20
2022-11-09T16:31:02.160Z,22.95
2022-11-09T16:33:49.346Z,20.80
2022-11-09T16:36:38.914Z,22.92
2022-11-09T16:39:29.183Z,23.65
2022-11-09T16:42:20.014Z,20.88
2022-11-09T16:45:10.628Z,20.00
2022-11-09T16:47:58.590Z,24.35
2022-11-09T16:50:53.148Z,22.80
2022-11-09T16:53:40.204Z,24.33
2022-11-09T16:56:27.345Z,21.83
2022-11-09T16:59:18.923Z,23.80
2022-11-09T17:02:07.734Z,21.83
2022-11-09T17:04:55.378Z,24.60
2022-11-09T17:07:45.925Z,25.05
2022-11-09T17:10:33.053Z,24.40
2022-11-09T17:13:20.427Z,27.88
2022-11-09T17:16:14.468Z,26.55
2022-11-09T17:19:09.376Z,23.42
2022-11-09T17:21:58.934Z,21.95
2022-11-09T17:24:47.036Z,26.92
2022-11-09T17:27:34.410Z,25.85
2022-11-09T17:30:24.600Z,23.52
2022-11-09T17:33:13.482Z,25.92
2022-11-09T17:36:01.327Z,23.13
2022-11-09T17:38:48.550Z,25.60
2022-11-09T17:41:41.359Z,31.15
2022-11-09T17:44:30.071Z,29.02
2022-11-09T17:47:21.024Z,22.15
2022-11-09T17:50:12.544Z,25.80
2022-11-09T17:53:00.414Z,28.70
2022-11-09T17:55:53.266Z,35.85
2022-11-09T17:58:41.715Z,31.80
2022-11-09T18:01:41.268Z,26.52
2022-11-09T18:04:32.644Z,24.13
2022-11-09T18:07:24.284Z,24.75
2022-11-09T18:10:19.833Z,26.67
2022-11-09T18:13:08.649Z,24.30
2022-11-09T18:15:55.916Z,23.08
2022-11-09T18:18:45.018Z,23.75
2022-11-09T18:21:39.644Z,23.52
2022-11-09T18:24:28.230Z,23.23
2022-11-09T18:30:08.447Z,19.83
2022-11-09T18:32:58.367Z,23.58
2022-11-09T18:38:36.447Z,22.88
2022-11-09T18:41:26.783Z,22.67
2022-11-09T18:44:15.428Z,21.52
2022-11-09T18:47:05.594Z,21.65
2022-11-09T18:49:53.603Z,25.33
2022-11-09T18:52:41.000Z,21.13
2022-11-09T18:58:46.225Z,20.95
2022-11-09T19:01:33.810Z,22.80
2022-11-09T19:04:21.166Z,19.52
2022-11-09T19:07:10.352Z,24.70
2022-11-09T19:09:57.747Z,18.48
2022-11-09T19:12:44.999Z,19.70
2022-11-09T19:15:35.637Z,23.00
2022-11-09T19:18:24.638Z,18.70
2022-11-09T19:21:34.316Z,18.42
2022-11-09T19:24:23.520Z,19.40
2022-11-09T19:27:12.155Z,19.90
2022-11-09T19:30:00.764Z,16.50
2022-11-09T19:32:53.096Z,19.60
2022-11-09T19:35:40.484Z,17.90
2022-11-09T19:38:30.917Z,18.88
2022-11-09T19:41:20.365Z,19.50
2022-11-09T19:44:12.901Z,16.48
2022-11-09T19:47:00.405Z,16.52
2022-11-09T19:49:48.890Z,14.43
2022-11-09T19:52:37.738Z,18.73
2022-11-09T19:55:26.156Z,14.88
2022-11-09T19:58:13.295Z,16.60
2022-11-09T20:01:05.164Z,13.77
2022-11-09T20:03:53.219Z,19.17
2022-11-09T20:06:42.363Z,13.90
2022-11-09T20:09:32.108Z,21.75
2022-11-09T20:12:35.666Z,19.17
2022-11-09T20:15:23.181Z,16.80
2022-11-09T20:18:10.482Z,17.60
2022-11-09T20:20:57.617Z,19.73
2022-11-09T20:23:46.123Z,20.20
2022-11-09T20:26:33.870Z,17.50
2022-11-09T20:29:21.037Z,18.10
2022-11-09T20:32:12.060Z,14.18
2022-11-09T20:35:00.453Z,16.83
2022-11-09T20:37:47.478Z,18.38
2022-11-09T20:40:39.056Z,16.58
2022-11-09T20:43:26.841Z,17.05
2022-11-09T20:46:18.306Z,17.55
2022-11-09T20:49:05.847Z,16.15
2022-11-09T20:51:53.305Z,15.82
2022-11-09T20:54:40.621Z,17.40
2022-11-09T20:57:29.674Z,15.70
2022-11-09T21:03:11.380Z,16.17
2022-11-09T21:05:59.620Z,14.50
2022-11-09T21:08:47.060Z,15.43
2022-11-09T21:11:37.075Z,14.43
2022-11-09T21:14:25.674Z,17.25
2022-11-09T21:20:00.676Z,15.48
2022-11-09T21:23:01.458Z,14.15
2022-11-09T21:26:06.190Z,14.32
2022-11-09T21:29:10.938Z,20.38
2022-11-09T21:31:59.955Z,15.70
2022-11-09T21:34:47.293Z,15.02
2022-11-09T21:37:36.089Z,16.30
2022-11-09T21:43:12.557Z,14.63
2022-11-09T21:45:59.383Z,18.33
2022-11-09T21:48:48.184Z,14.75
2022-11-09T21:54:23.800Z,17.97
2022-11-09T21:57:10.791Z,15.65
2022-11-09T21:59:58.349Z,17.27
2022-11-09T22:02:45.652Z,15.75
2022-11-09T22:05:36.901Z,14.45
2022-11-09T22:08:24.147Z,14.32
2022-11-09T22:11:13.011Z,17.92
2022-11-09T22:14:17.829Z,15.52
2022-11-09T22:17:13.331Z,18.15
2022-11-09T22:20:17.924Z,16.25
2022-11-09T22:23:08.571Z,14.45
2022-11-09T22:25:55.621Z,17.65
2022-11-09T22:28:42.945Z,15.70
2022-11-09T22:31:30.033Z,16.85
2022-11-09T22:34:20.219Z,15.70
2022-11-09T22:37:07.599Z,20.70
2022-11-09T22:39:56.385Z,16.35
2022-11-09T22:42:43.470Z,16.88
2022-11-09T22:45:30.708Z,15.00
2022-11-09T22:48:18.068Z,14.80
2022-11-09T22:51:06.165Z,15.57
2022-11-09T22:56:42.490Z,19.27
2022-11-09T23:02:16.362Z,15.45
2022-11-09T23:05:03.372Z,14.75
2022-11-09T23:07:50.686Z,16.13
2022-11-09T23:10:38.358Z,16.05
2022-11-09T23:13:27.249Z,17.77
2022-11-09T23:16:14.111Z,13.88
2022-11-09T23:19:00.483Z,16.20
2022-11-09T23:21:47.525Z,18.15
2022-11-09T23:24:52.024Z,15.88
2022-11-09T23:27:39.453Z,16.60
2022-11-09T23:30:28.205Z,14.65
2022-11-09T23:36:03.276Z,16.42
2022-11-09T23:38:50.315Z,18.42
2022-11-09T23:41:37.302Z,17.60
2022-11-09T23:44:26.225Z,16.95
2022-11-09T23:47:14.942Z,13.55
2022-11-09T23:50:02.027Z,17.83
2022-11-09T23:52:49.317Z,18.40
2022-11-09T23:55:36.400Z,14.82
2022-11-09T23:58:23.527Z,15.95
